Time;durP1;ratioP1;P1;durP2;ratioP2;P2;SDS_P1;SDS_P2;PMS_P1;PMS_P2;Temp;Humidity;BMP_temperature;BMP_pressure;BME280_temperature;BME280_humidity;BME280_pressure;Samples;Min_cycle;Max_cycle;Signal;HPM_P1;HPM_P2
2022/01/10 00:01:17;;;;;;;33.20;10.73;;;3.20;99.90;;;;;;5129158;27;20069;-64
2022/01/10 00:03:43;;;;;;;25.58;10.25;;;2.80;99.90;;;;;;5111159;27;20039;-64
2022/01/10 00:06:08;;;;;;;31.05;10.65;;;2.30;99.90;;;;;;5129542;27;20042;-64
2022/01/10 00:08:34;;;;;;;27.73;9.98;;;2.30;99.90;;;;;;5128667;27;20051;-64
2022/01/10 00:11:00;;;;;;;19.55;9.25;;;2.30;99.90;;;;;;5128500;27;20042;-64
2022/01/10 00:13:25;;;;;;;30.00;10.95;;;2.30;99.90;;;;;;5128446;27;20039;-65
2022/01/10 00:15:51;;;;;;;28.20;10.25;;;2.30;99.90;;;;;;5128285;27;20043;-64
2022/01/10 00:18:17;;;;;;;26.55;10.63;;;2.30;99.90;;;;;;5127980;27;20123;-64
2022/01/10 00:20:42;;;;;;;22.90;10.57;;;3.40;99.90;;;;;;5127670;27;20048;-64
2022/01/10 00:23:09;;;;;;;26.42;10.80;;;2.20;99.90;;;;;;5128143;27;20483;-64
2022/01/10 00:25:35;;;;;;;21.23;9.80;;;2.10;99.90;;;;;;5110037;27;20040;-64
2022/01/10 00:28:00;;;;;;;27.58;11.52;;;2.10;99.90;;;;;;5127977;27;20047;-64
2022/01/10 00:30:26;;;;;;;21.95;10.10;;;2.10;99.90;;;;;;5126322;27;20039;-64
2022/01/10 00:32:53;;;;;;;25.77;11.52;;;2.00;99.90;;;;;;5127570;27;20369;-65
2022/01/10 00:35:19;;;;;;;25.48;9.73;;;2.30;99.90;;;;;;5127078;27;20055;-64
2022/01/10 00:37:45;;;;;;;28.45;10.80;;;2.00;99.90;;;;;;5128142;27;20054;-64
2022/01/10 00:40:14;;;;;;;25.50;9.93;;;1.90;99.90;;;;;;5127808;27;20081;-64
2022/01/10 00:42:40;;;;;;;28.23;11.07;;;1.80;99.90;;;;;;5127364;27;20043;-64
2022/01/10 00:45:17;;;;;;;24.70;9.60;;;1.80;99.90;;;;;;5127478;27;20045;-64
2022/01/10 00:47:45;;;;;;;22.17;9.93;;;1.80;99.90;;;;;;5123849;27;20043;-64
2022/01/10 00:50:12;;;;;;;26.23;10.20;;;1.90;99.90;;;;;;5126205;27;20077;-64
2022/01/10 00:52:37;;;;;;;27.08;10.52;;;1.70;99.90;;;;;;5125701;27;21206;-64
2022/01/10 00:55:04;;;;;;;24.48;9.82;;;1.70;99.90;;;;;;5126195;27;20051;-64
2022/01/10 00:57:29;;;;;;;27.95;10.05;;;1.70;99.90;;;;;;5125984;27;20173;-64
2022/01/10 00:59:55;;;;;;;26.02;10.55;;;1.70;99.90;;;;;;5126897;27;20201;-64
2022/01/10 01:02:22;;;;;;;24.10;11.02;;;1.70;99.90;;;;;;5125729;27;20057;-64
2022/01/10 01:04:51;;;;;;;26.60;10.93;;;1.70;99.90;;;;;;5124897;27;20114;-64
2022/01/10 01:07:17;;;;;;;23.92;10.70;;;1.60;99.90;;;;;;5126551;27;20047;-64
2022/01/10 01:09:48;;;;;;;29.27;11.43;;;1.70;99.90;;;;;;5110181;27;20035;-64
2022/01/10 01:12:35;;;;;;;30.73;12.73;;;1.60;99.90;;;;;;5127676;27;20497;-64
2022/01/10 01:15:17;;;;;;;25.30;11.05;;;1.60;99.90;;;;;;5128095;27;20058;-64
2022/01/10 01:17:58;;;;;;;26.45;12.05;;;1.60;99.90;;;;;;5109617;27;20093;-64
2022/01/10 01:23:58;;;;;;;26.50;12.50;;;1.60;99.90;;;;;;5127024;27;20051;-64
2022/01/10 01:26:02;;;;;;;26.67;12.27;;;1.60;99.90;;;;;;5127248;28;20078;-64
2022/01/10 01:28:28;;;;;;;28.88;11.52;;;2.00;99.90;;;;;;5127266;27;20088;-64
2022/01/10 01:30:54;;;;;;;28.60;11.48;;;1.60;99.90;;;;;;5127551;28;20104;-64
2022/01/10 01:33:21;;;;;;;30.15;12.60;;;2.70;99.90;;;;;;5126002;27;20498;-64
2022/01/10 01:35:47;;;;;;;27.25;12.38;;;1.50;99.90;;;;;;5128500;27;20031;-64
2022/01/10 01:38:14;;;;;;;29.13;12.20;;;1.50;99.90;;;;;;5126528;28;20089;-64
2022/01/10 01:40:46;;;;;;;31.73;13.00;;;1.50;99.90;;;;;;5127613;28;20039;-64
2022/01/10 01:43:12;;;;;;;24.83;11.18;;;1.50;99.90;;;;;;5127301;28;20078;-64
2022/01/10 01:45:44;;;;;;;28.73;11.95;;;1.40;99.90;;;;;;5127832;28;20100;-64
2022/01/10 01:48:09;;;;;;;28.75;11.93;;;1.40;99.90;;;;;;5125176;27;20045;-64
2022/01/10 01:50:36;;;;;;;24.73;11.50;;;1.30;99.90;;;;;;5125798;27;20109;-64
2022/01/10 01:53:04;;;;;;;26.25;11.50;;;1.30;99.90;;;;;;5127017;27;20047;-64
2022/01/10 01:55:30;;;;;;;20.67;11.55;;;1.30;99.90;;;;;;5125283;27;20130;-64
2022/01/10 01:57:56;;;;;;;31.73;12.55;;;1.20;99.90;;;;;;5125426;27;20139;-64
2022/01/10 02:00:23;;;;;;;36.63;13.10;;;1.20;99.90;;;;;;5125617;27;20050;-64
2022/01/10 02:02:53;;;;;;;22.95;12.13;;;1.20;99.90;;;;;;5126011;27;20054;-64
2022/01/10 02:05:19;;;;;;;25.50;11.85;;;1.20;99.90;;;;;;5124808;27;20039;-64
2022/01/10 02:07:45;;;;;;;34.15;12.77;;;1.20;99.90;;;;;;5124089;27;20047;-64
2022/01/10 02:10:12;;;;;;;33.85;13.23;;;1.20;99.90;;;;;;5127969;27;20112;-64
2022/01/10 02:12:38;;;;;;;31.23;13.13;;;1.20;99.90;;;;;;5123653;27;20139;-64
2022/01/10 02:15:05;;;;;;;28.17;12.90;;;1.40;99.90;;;;;;5126025;27;20065;-64
2022/01/10 02:17:36;;;;;;;27.05;12.35;;;1.20;99.90;;;;;;5124628;27;20552;-64
2022/01/10 02:20:05;;;;;;;32.42;12.25;;;1.20;99.90;;;;;;5128560;27;20146;-64
2022/01/10 02:22:31;;;;;;;26.13;13.60;;;1.20;99.90;;;;;;5128954;27;20043;-64
2022/01/10 02:24:57;;;;;;;30.40;13.13;;;1.20;99.90;;;;;;5129562;27;20091;-64
2022/01/10 02:27:24;;;;;;;28.92;12.38;;;1.20;99.90;;;;;;5129755;27;20726;-64
2022/01/10 02:29:51;;;;;;;33.47;13.55;;;1.20;99.90;;;;;;5130860;27;20419;-64
2022/01/10 02:32:17;;;;;;;29.00;12.43;;;1.20;99.90;;;;;;5129829;27;20053;-64
2022/01/10 02:34:42;;;;;;;29.88;13.18;;;1.20;99.90;;;;;;5129842;27;20039;-64
2022/01/10 02:37:08;;;;;;;28.88;11.93;;;1.20;99.90;;;;;;5129523;27;20046;-64
2022/01/10 02:39:36;;;;;;;28.58;11.73;;;1.20;99.90;;;;;;5128635;27;20088;-64
2022/01/10 02:42:01;;;;;;;29.42;13.10;;;1.20;99.90;;;;;;5112354;27;20674;-64
2022/01/10 02:44:29;;;;;;;27.70;12.13;;;1.10;99.90;;;;;;5111255;27;20047;-64
2022/01/10 02:46:56;;;;;;;25.67;12.50;;;1.10;99.90;;;;;;5129539;27;20047;-64
2022/01/10 02:49:27;;;;;;;27.40;12.38;;;1.10;99.90;;;;;;5129354;27;20065;-64
2022/01/10 02:51:55;;;;;;;26.38;13.65;;;1.10;99.90;;;;;;5128707;27;20474;-64
2022/01/10 02:54:25;;;;;;;29.45;13.32;;;1.10;99.90;;;;;;5128901;27;20486;-64
2022/01/10 02:56:54;;;;;;;28.30;12.07;;;1.10;99.90;;;;;;5128198;27;20043;-64
2022/01/10 02:59:21;;;;;;;26.48;12.50;;;1.10;99.90;;;;;;5128004;27;20032;-64
2022/01/10 03:01:47;;;;;;;28.90;13.15;;;1.10;99.90;;;;;;5111777;27;20050;-64
2022/01/10 03:04:15;;;;;;;26.00;12.18;;;1.00;99.90;;;;;;5128322;27;20049;-64
2022/01/10 03:06:41;;;;;;;30.42;12.38;;;1.00;99.90;;;;;;5129617;27;20108;-64
2022/01/10 03:09:08;;;;;;;33.75;13.68;;;1.00;99.90;;;;;;5111746;27;20035;-64
2022/01/10 03:11:37;;;;;;;27.77;12.93;;;0.90;99.90;;;;;;5129751;27;20409;-64
2022/01/10 03:14:04;;;;;;;29.00;12.73;;;0.90;99.90;;;;;;5109601;27;20122;-64
2022/01/10 03:16:30;;;;;;;32.05;13.57;;;0.90;99.90;;;;;;5127799;27;20035;-64
2022/01/10 03:18:55;;;;;;;28.27;11.82;;;1.00;99.90;;;;;;5128728;27;20095;-64
2022/01/10 03:21:21;;;;;;;26.30;12.15;;;0.90;99.90;;;;;;5111236;27;20051;-64
2022/01/10 03:23:48;;;;;;;23.95;11.60;;;0.80;99.90;;;;;;5128186;27;20054;-64
2022/01/10 03:26:14;;;;;;;23.70;12.43;;;0.80;99.90;;;;;;5125592;27;20177;-64
2022/01/10 03:28:40;;;;;;;22.15;11.50;;;0.70;99.90;;;;;;5129326;27;20118;-64
2022/01/10 03:31:06;;;;;;;29.40;11.55;;;0.70;99.90;;;;;;5128247;27;20046;-64
2022/01/10 03:33:31;;;;;;;28.88;12.20;;;0.60;99.90;;;;;;5128182;27;20473;-64
2022/01/10 03:35:57;;;;;;;28.30;11.80;;;0.60;99.90;;;;;;5126852;27;20047;-64
2022/01/10 03:38:23;;;;;;;23.42;11.68;;;0.60;99.90;;;;;;5127830;27;20039;-64
2022/01/10 03:40:48;;;;;;;22.08;10.95;;;0.60;99.90;;;;;;5127321;27;20035;-64
2022/01/10 03:43:14;;;;;;;27.35;11.98;;;0.60;99.90;;;;;;5127696;27;20039;-64
2022/01/10 03:45:40;;;;;;;27.52;11.13;;;0.50;99.90;;;;;;5110115;27;20945;-64
2022/01/10 03:48:06;;;;;;;23.92;11.68;;;0.50;99.90;;;;;;5126884;27;20033;-64
2022/01/10 03:50:32;;;;;;;20.52;10.80;;;0.50;99.90;;;;;;5127978;27;20027;-64
2022/01/10 03:52:57;;;;;;;21.20;10.57;;;0.40;99.90;;;;;;5128077;27;20039;-64
2022/01/10 03:55:24;;;;;;;23.75;11.93;;;0.40;99.90;;;;;;5126626;27;20062;-64
2022/01/10 03:57:49;;;;;;;25.92;12.07;;;0.40;99.90;;;;;;5126348;27;20053;-64
2022/01/10 04:00:16;;;;;;;23.48;10.95;;;0.40;99.90;;;;;;5127530;27;20035;-64
2022/01/10 04:02:47;;;;;;;25.17;10.88;;;0.30;99.90;;;;;;5110535;27;20051;-64
2022/01/10 04:05:13;;;;;;;25.70;11.68;;;0.30;99.90;;;;;;5126018;27;20039;-64
2022/01/10 04:07:39;;;;;;;26.48;11.30;;;0.30;99.90;;;;;;5128298;27;20053;-64
2022/01/10 04:10:06;;;;;;;30.92;12.13;;;0.30;99.90;;;;;;5126066;27;20143;-64
2022/01/10 04:12:31;;;;;;;27.02;11.80;;;0.30;99.90;;;;;;5125236;27;20035;-64
2022/01/10 04:14:57;;;;;;;25.10;11.05;;;0.30;99.90;;;;;;5127699;27;20058;-64
2022/01/10 04:17:23;;;;;;;24.33;11.25;;;0.50;99.90;;;;;;5127637;27;20325;-64
2022/01/10 04:19:48;;;;;;;26.23;11.18;;;0.50;99.90;;;;;;5127846;27;20090;-64
2022/01/10 04:22:14;;;;;;;24.55;11.27;;;0.20;99.90;;;;;;5129079;27;20118;-64
2022/01/10 04:24:40;;;;;;;25.33;11.63;;;0.20;99.90;;;;;;5128554;27;20463;-64
2022/01/10 04:27:05;;;;;;;25.83;11.43;;;0.80;99.90;;;;;;5127216;27;20039;-64
2022/01/10 04:29:31;;;;;;;25.30;11.10;;;0.40;99.90;;;;;;5124949;27;20067;-64
2022/01/10 04:31:57;;;;;;;24.55;12.27;;;0.20;99.90;;;;;;5125603;27;20096;-64
2022/01/10 04:34:22;;;;;;;19.42;11.18;;;0.20;99.90;;;;;;5125733;27;20072;-64
2022/01/10 04:36:48;;;;;;;22.38;11.57;;;0.10;99.90;;;;;;5126590;27;20053;-64
2022/01/10 04:39:14;;;;;;;23.35;11.40;;;0.10;99.90;;;;;;5128070;27;20046;-64
2022/01/10 04:41:40;;;;;;;22.30;11.88;;;0.10;99.90;;;;;;5126305;27;20050;-64
2022/01/10 04:44:07;;;;;;;24.85;10.73;;;0.60;99.90;;;;;;5126968;27;20027;-64
2022/01/10 04:46:33;;;;;;;24.65;10.82;;;0.10;99.90;;;;;;5128317;27;20481;-64
2022/01/10 04:49:00;;;;;;;23.08;10.98;;;0.60;99.90;;;;;;5127249;27;20538;-64
2022/01/10 04:51:28;;;;;;;23.80;11.05;;;0.10;99.90;;;;;;5127496;27;20157;-64
2022/01/10 04:53:55;;;;;;;22.10;11.15;;;0.00;99.90;;;;;;5125597;27;20039;-64
2022/01/10 04:56:21;;;;;;;19.58;10.98;;;0.00;99.90;;;;;;5127419;27;20035;-64
2022/01/10 04:58:49;;;;;;;16.02;9.60;;;0.00;99.90;;;;;;5126003;27;20035;-64
2022/01/10 05:01:16;;;;;;;18.73;10.25;;;0.00;99.90;;;;;;5126990;27;20050;-64
2022/01/10 05:03:42;;;;;;;21.52;11.27;;;0.00;99.90;;;;;;5126620;27;20055;-64
2022/01/10 05:06:08;;;;;;;20.02;10.75;;;0.00;99.90;;;;;;5128541;27;20047;-64
2022/01/10 05:08:34;;;;;;;17.98;10.15;;;0.00;99.90;;;;;;5127192;27;20483;-64
2022/01/10 05:10:59;;;;;;;19.70;10.45;;;0.20;99.90;;;;;;5125639;27;20589;-64
2022/01/10 05:13:25;;;;;;;20.40;10.98;;;0.00;99.90;;;;;;5128077;27;20041;-64
2022/01/10 05:15:52;;;;;;;16.02;9.55;;;0.00;99.90;;;;;;5127293;27;20360;-64
2022/01/10 05:18:19;;;;;;;19.23;9.50;;;0.00;99.90;;;;;;5126841;27;20047;-63
2022/01/10 05:20:45;;;;;;;17.15;10.45;;;0.00;99.90;;;;;;5126140;27;20070;-64
2022/01/10 05:23:12;;;;;;;13.73;9.15;;;0.00;99.90;;;;;;5126602;27;20037;-64
2022/01/10 05:25:40;;;;;;;19.77;9.85;;;0.00;99.90;;;;;;5125940;27;20039;-64
2022/01/10 05:28:10;;;;;;;18.95;9.73;;;0.00;99.90;;;;;;5109221;28;20398;-64
2022/01/10 05:30:37;;;;;;;22.73;9.93;;;0.00;99.90;;;;;;5125142;27;20047;-64
2022/01/10 05:33:03;;;;;;;19.15;9.50;;;0.00;99.90;;;;;;5124079;27;20043;-64
2022/01/10 05:35:29;;;;;;;23.02;9.52;;;-0.10;99.90;;;;;;5124427;27;20487;-64
2022/01/10 05:37:55;;;;;;;16.63;9.52;;;-0.10;99.90;;;;;;5124655;27;20047;-64
2022/01/10 05:40:20;;;;;;;15.02;9.13;;;-0.10;99.90;;;;;;5126942;27;20043;-64
2022/01/10 05:42:46;;;;;;;20.90;11.00;;;-0.20;99.90;;;;;;5125132;27;20054;-64
2022/01/10 05:45:12;;;;;;;24.83;11.35;;;-0.20;99.90;;;;;;5107019;27;20474;-64
2022/01/10 05:47:42;;;;;;;23.52;11.23;;;-0.20;99.90;;;;;;5125460;27;20031;-64
2022/01/10 05:50:09;;;;;;;15.68;10.10;;;-0.20;99.90;;;;;;5126374;27;20494;-64
2022/01/10 05:52:35;;;;;;;16.92;10.02;;;-0.20;99.90;;;;;;5124962;27;20027;-64
2022/01/10 05:55:01;;;;;;;18.50;10.00;;;-0.20;99.90;;;;;;5127978;27;20042;-64
2022/01/10 05:57:27;;;;;;;20.88;10.48;;;-0.20;99.90;;;;;;5131012;27;20042;-64
2022/01/10 05:59:52;;;;;;;18.75;9.95;;;-0.20;99.90;;;;;;5130405;27;20532;-64
2022/01/10 06:02:18;;;;;;;19.05;10.63;;;-0.10;99.90;;;;;;5130060;27;20565;-64
2022/01/10 06:04:44;;;;;;;17.98;10.48;;;-0.20;99.90;;;;;;5130796;27;20054;-64
2022/01/10 06:07:10;;;;;;;20.35;10.38;;;-0.20;99.90;;;;;;5130601;27;20046;-64
2022/01/10 06:09:35;;;;;;;19.30;11.02;;;-0.20;99.90;;;;;;5131339;27;20043;-64
2022/01/10 06:12:01;;;;;;;20.13;11.13;;;-0.20;99.90;;;;;;5130233;27;20117;-64
2022/01/10 06:14:27;;;;;;;21.48;13.10;;;-0.20;99.90;;;;;;5111877;27;20487;-64
2022/01/10 06:16:53;;;;;;;25.30;12.60;;;-0.20;99.90;;;;;;5112911;27;20035;-64
2022/01/10 06:19:18;;;;;;;18.92;11.00;;;-0.10;99.90;;;;;;5129889;27;20046;-64
2022/01/10 06:21:44;;;;;;;21.55;10.85;;;-0.10;99.90;;;;;;5130007;27;20633;-64
2022/01/10 06:24:10;;;;;;;22.02;11.68;;;-0.10;99.90;;;;;;5130694;27;20103;-64
2022/01/10 06:26:35;;;;;;;17.88;11.60;;;-0.20;99.90;;;;;;5131053;27;20058;-64
2022/01/10 06:29:02;;;;;;;22.13;12.57;;;-0.20;99.90;;;;;;5129941;27;20567;-63
2022/01/10 06:31:28;;;;;;;20.10;11.25;;;-0.20;99.90;;;;;;5130917;27;20080;-64
2022/01/10 06:33:54;;;;;;;21.85;13.13;;;-0.10;99.90;;;;;;5131988;27;20076;-63
2022/01/10 06:36:20;;;;;;;22.73;11.40;;;-0.10;99.90;;;;;;5128752;27;21328;-64
2022/01/10 06:38:46;;;;;;;24.67;12.32;;;-0.10;99.90;;;;;;5128777;27;20521;-64
2022/01/10 06:41:11;;;;;;;18.17;12.38;;;-0.10;99.90;;;;;;5130150;27;20533;-64
2022/01/10 06:43:39;;;;;;;23.15;12.65;;;-0.10;99.90;;;;;;5128909;27;20504;-64
2022/01/10 06:46:05;;;;;;;20.77;12.25;;;0.70;99.90;;;;;;5130932;27;20096;-64
2022/01/10 06:48:31;;;;;;;19.58;11.98;;;-0.10;99.90;;;;;;5130324;27;20043;-64
2022/01/10 06:50:57;;;;;;;23.17;11.95;;;0.00;99.90;;;;;;5113245;27;20123;-64
2022/01/10 06:53:23;;;;;;;20.90;12.02;;;0.00;99.90;;;;;;5128883;27;20035;-64
2022/01/10 06:55:48;;;;;;;16.88;11.18;;;0.00;99.90;;;;;;5127732;27;20035;-64
2022/01/10 06:58:14;;;;;;;23.90;12.57;;;0.00;99.90;;;;;;5124807;27;20046;-64
2022/01/10 07:00:42;;;;;;;19.63;12.30;;;0.00;99.90;;;;;;5123882;27;20481;-64
2022/01/10 07:03:08;;;;;;;24.55;11.98;;;0.00;99.90;;;;;;5127341;27;20114;-63
2022/01/10 07:05:34;;;;;;;19.55;12.00;;;0.00;99.90;;;;;;5125755;27;20130;-63
2022/01/10 07:08:00;;;;;;;20.40;12.27;;;0.00;99.90;;;;;;5129041;27;20406;-64
2022/01/10 07:10:25;;;;;;;22.60;14.45;;;0.00;99.90;;;;;;5130434;27;20039;-64
2022/01/10 07:12:52;;;;;;;19.10;12.70;;;0.20;99.90;;;;;;5128520;27;20487;-63
2022/01/10 07:15:18;;;;;;;21.13;13.43;;;0.10;99.90;;;;;;5127699;27;20043;-64
2022/01/10 07:17:44;;;;;;;22.63;12.60;;;0.10;99.90;;;;;;5125476;27;20100;-64
2022/01/10 07:20:10;;;;;;;20.10;13.43;;;0.10;99.90;;;;;;5128893;27;20039;-65
2022/01/10 07:22:36;;;;;;;20.33;13.40;;;0.10;99.90;;;;;;5126820;27;20041;-64
2022/01/10 07:25:03;;;;;;;22.33;13.00;;;0.20;99.90;;;;;;5128091;27;20469;-64
2022/01/10 07:27:29;;;;;;;21.05;13.75;;;0.20;99.90;;;;;;5128129;27;20121;-63
2022/01/10 07:29:54;;;;;;;25.75;13.55;;;0.20;99.90;;;;;;5128662;27;20117;-64
2022/01/10 07:32:20;;;;;;;25.23;14.85;;;0.20;99.90;;;;;;5129138;27;20036;-64
2022/01/10 07:34:46;;;;;;;25.35;15.38;;;0.20;99.90;;;;;;5128549;27;20039;-64
2022/01/10 07:37:12;;;;;;;18.08;12.40;;;0.20;99.90;;;;;;5128781;27;20620;-64
2022/01/10 07:39:37;;;;;;;26.63;14.55;;;0.40;99.90;;;;;;5127701;27;20031;-64
2022/01/10 07:42:03;;;;;;;28.25;15.48;;;0.20;99.90;;;;;;5130249;27;20032;-64
2022/01/10 07:44:30;;;;;;;24.27;14.68;;;0.20;99.90;;;;;;5128445;27;20078;-64
2022/01/10 07:46:56;;;;;;;23.15;13.27;;;0.10;99.90;;;;;;5125887;27;20032;-64
2022/01/10 07:49:22;;;;;;;25.63;17.45;;;0.10;99.90;;;;;;5126249;27;20430;-64
2022/01/10 07:51:47;;;;;;;25.58;17.63;;;0.20;99.90;;;;;;5108571;27;20055;-64
2022/01/10 07:54:13;;;;;;;23.98;14.93;;;0.20;99.90;;;;;;5127541;27;20569;-64
2022/01/10 07:56:39;;;;;;;20.92;12.70;;;0.20;99.90;;;;;;5128653;27;20066;-64
2022/01/10 07:59:05;;;;;;;26.42;15.60;;;0.20;99.90;;;;;;5111770;27;20035;-64
2022/01/10 08:01:31;;;;;;;24.88;13.57;;;0.30;99.90;;;;;;5127319;27;20042;-64
2022/01/10 08:03:56;;;;;;;24.35;15.13;;;0.30;99.90;;;;;;5128907;27;20039;-64
2022/01/10 08:06:22;;;;;;;23.38;14.88;;;0.40;99.90;;;;;;5128798;27;20035;-64
2022/01/10 08:08:48;;;;;;;24.27;15.35;;;0.40;99.90;;;;;;5127075;27;20068;-64
2022/01/10 08:11:15;;;;;;;23.33;15.27;;;0.50;99.90;;;;;;5126821;27;20051;-64
2022/01/10 08:13:44;;;;;;;25.83;15.85;;;0.50;99.90;;;;;;5127384;27;20039;-64
2022/01/10 08:16:10;;;;;;;22.38;14.82;;;0.50;99.90;;;;;;5128078;27;20046;-64
2022/01/10 08:18:35;;;;;;;20.38;14.02;;;0.50;99.90;;;;;;5127311;27;20042;-64
2022/01/10 08:21:02;;;;;;;25.02;14.43;;;0.50;99.90;;;;;;5125756;27;20485;-64
2022/01/10 08:23:28;;;;;;;25.17;14.48;;;0.50;99.90;;;;;;5125983;27;20050;-64
2022/01/10 08:25:54;;;;;;;21.50;15.02;;;0.50;99.90;;;;;;5123209;27;20053;-64
2022/01/10 08:28:21;;;;;;;31.02;16.02;;;0.60;99.90;;;;;;5124328;27;20513;-64
2022/01/10 08:30:47;;;;;;;24.33;16.13;;;0.40;99.90;;;;;;5127951;27;20633;-64
2022/01/10 08:33:13;;;;;;;27.67;16.05;;;0.40;99.90;;;;;;5124719;27;20113;-64
2022/01/10 08:35:38;;;;;;;29.23;16.45;;;0.40;99.90;;;;;;5124235;27;20035;-64
2022/01/10 08:38:04;;;;;;;31.52;16.17;;;0.50;99.90;;;;;;5124145;27;20050;-64
2022/01/10 08:40:30;;;;;;;29.63;15.45;;;0.40;99.90;;;;;;5126253;27;20498;-64
2022/01/10 08:42:55;;;;;;;33.00;17.67;;;0.50;99.90;;;;;;5109596;27;20043;-64
2022/01/10 08:45:21;;;;;;;38.47;19.15;;;0.50;99.90;;;;;;5110178;27;20031;-64
2022/01/10 08:47:47;;;;;;;42.53;18.75;;;0.50;99.90;;;;;;5126733;27;20045;-64
2022/01/10 08:50:13;;;;;;;29.73;17.35;;;0.60;99.90;;;;;;5128746;27;20110;-63
2022/01/10 08:52:40;;;;;;;30.88;17.05;;;0.60;99.90;;;;;;5125852;27;20092;-64
2022/01/10 08:55:08;;;;;;;98.25;60.63;;;0.70;99.90;;;;;;5127919;27;20050;-66
2022/01/10 08:57:34;;;;;;;32.33;19.13;;;0.70;99.90;;;;;;5125085;27;20042;-64
2022/01/10 09:00:00;;;;;;;32.88;18.90;;;0.80;99.90;;;;;;5124520;27;20384;-64
2022/01/10 09:02:26;;;;;;;39.92;19.98;;;0.80;99.90;;;;;;5128106;27;20471;-64
2022/01/10 09:04:52;;;;;;;28.50;18.85;;;0.80;99.90;;;;;;5126926;27;20057;-65
2022/01/10 09:07:18;;;;;;;29.13;17.23;;;0.90;99.90;;;;;;5127524;27;20043;-64
2022/01/10 09:09:44;;;;;;;33.28;18.17;;;0.90;99.90;;;;;;5109671;27;20043;-64
2022/01/10 09:12:11;;;;;;;32.50;17.88;;;0.90;99.90;;;;;;5126549;27;20031;-64
2022/01/10 09:14:37;;;;;;;35.55;19.25;;;0.90;99.90;;;;;;5127090;27;20035;-64
2022/01/10 09:17:03;;;;;;;26.45;17.92;;;0.90;99.90;;;;;;5109813;27;20054;-64
2022/01/10 09:19:29;;;;;;;38.33;19.35;;;1.00;99.90;;;;;;5127292;27;20031;-64
2022/01/10 09:21:55;;;;;;;28.45;16.83;;;1.00;99.90;;;;;;5127358;27;20039;-64
2022/01/10 09:24:21;;;;;;;29.55;17.75;;;1.00;99.90;;;;;;5127505;27;20122;-64
2022/01/10 09:26:47;;;;;;;42.70;20.40;;;1.00;99.90;;;;;;5127640;28;20077;-64
2022/01/10 09:29:13;;;;;;;31.40;18.50;;;1.10;99.90;;;;;;5126853;27;20039;-65
2022/01/10 09:31:39;;;;;;;42.90;20.63;;;1.10;99.90;;;;;;5126972;27;20502;-64
2022/01/10 09:34:04;;;;;;;28.88;19.33;;;1.10;99.90;;;;;;5126434;27;20024;-64
2022/01/10 09:36:31;;;;;;;39.03;20.95;;;1.20;99.90;;;;;;5126957;28;20038;-64
2022/01/10 09:38:58;;;;;;;34.58;20.15;;;1.30;99.90;;;;;;5127632;28;20075;-64
2022/01/10 09:41:26;;;;;;;38.65;20.67;;;1.30;99.90;;;;;;5127676;27;20463;-64
2022/01/10 09:44:02;;;;;;;36.47;20.27;;;1.30;99.90;;;;;;5128061;28;20066;-64
2022/01/10 09:46:29;;;;;;;38.97;22.17;;;1.40;99.90;;;;;;5128257;28;20076;-64
2022/01/10 09:48:57;;;;;;;33.63;21.20;;;1.40;99.90;;;;;;5127073;28;20058;-64
2022/01/10 09:51:26;;;;;;;33.20;20.30;;;1.40;99.90;;;;;;5127510;27;20069;-64
2022/01/10 09:53:53;;;;;;;40.08;20.80;;;1.50;99.90;;;;;;5110175;28;20050;-64
2022/01/10 09:56:19;;;;;;;33.95;20.05;;;1.60;99.90;;;;;;5127139;28;20122;-64
2022/01/10 09:58:45;;;;;;;35.38;21.02;;;1.60;99.90;;;;;;5128282;27;20636;-64
2022/01/10 10:01:16;;;;;;;36.20;20.92;;;1.60;99.90;;;;;;5126883;27;20046;-64
2022/01/10 10:03:50;;;;;;;36.55;21.35;;;1.60;99.90;;;;;;5127719;28;20051;-64
2022/01/10 10:06:17;;;;;;;37.00;20.42;;;2.00;99.90;;;;;;5126908;28;20035;-65
2022/01/10 10:08:43;;;;;;;39.55;21.38;;;1.70;99.90;;;;;;5125994;28;20142;-64
2022/01/10 10:11:10;;;;;;;38.00;21.85;;;1.70;99.90;;;;;;5127434;27;20031;-64
2022/01/10 10:13:56;;;;;;;34.75;21.65;;;1.80;99.90;;;;;;5126903;28;20768;-64
2022/01/10 10:16:25;;;;;;;34.50;21.50;;;1.80;99.90;;;;;;5126838;28;20042;-64
2022/01/10 10:18:51;;;;;;;39.20;21.90;;;1.80;99.90;;;;;;5126264;27;20285;-64
2022/01/10 10:21:21;;;;;;;33.75;20.75;;;1.90;99.90;;;;;;5126287;28;20054;-65
2022/01/10 10:23:49;;;;;;;35.90;22.38;;;2.00;99.90;;;;;;5127194;27;20096;-64
2022/01/10 10:26:25;;;;;;;36.10;22.02;;;2.00;99.90;;;;;;5127183;27;20132;-65
2022/01/10 10:28:53;;;;;;;36.15;22.60;;;2.10;99.90;;;;;;5127115;28;20772;-64
2022/01/10 10:31:28;;;;;;;38.05;21.88;;;2.10;99.90;;;;;;5126550;28;20110;-64
2022/01/10 10:33:56;;;;;;;34.60;21.55;;;2.20;99.90;;;;;;5125297;27;20043;-65
2022/01/10 10:36:25;;;;;;;37.03;21.60;;;2.20;99.90;;;;;;5124984;28;20064;-64
2022/01/10 10:38:51;;;;;;;33.22;20.83;;;2.30;99.90;;;;;;5126827;27;20039;-64
2022/01/10 10:41:17;;;;;;;34.45;20.55;;;2.30;99.90;;;;;;5129620;27;20042;-64
2022/01/10 10:43:43;;;;;;;34.17;20.30;;;2.40;99.90;;;;;;5128661;27;20039;-64
2022/01/10 10:46:14;;;;;;;36.95;21.98;;;2.50;99.90;;;;;;5131680;27;20035;-64
2022/01/10 10:48:42;;;;;;;34.13;21.75;;;2.50;99.90;;;;;;5128930;27;20179;-65
2022/01/10 10:51:08;;;;;;;32.60;20.83;;;2.60;99.90;;;;;;5129842;27;20509;-64
2022/01/10 10:53:33;;;;;;;36.45;21.73;;;2.60;99.90;;;;;;5129136;27;20043;-64
2022/01/10 10:56:02;;;;;;;34.75;21.33;;;2.80;99.90;;;;;;5130404;27;20039;-64
2022/01/10 10:58:28;;;;;;;37.33;21.02;;;2.80;99.90;;;;;;5130019;27;20043;-64
2022/01/10 11:00:55;;;;;;;36.67;21.52;;;2.70;99.90;;;;;;5128797;27;20043;-64
2022/01/10 11:03:22;;;;;;;34.85;20.67;;;2.80;99.90;;;;;;5130501;27;20129;-64
2022/01/10 11:05:48;;;;;;;31.60;21.23;;;2.80;99.90;;;;;;5129813;27;20074;-64
2022/01/10 11:08:15;;;;;;;36.85;23.75;;;2.90;99.90;;;;;;5129826;27;21319;-64
2022/01/10 11:10:41;;;;;;;30.85;20.52;;;2.90;99.90;;;;;;5131330;27;20479;-64
2022/01/10 11:13:08;;;;;;;34.47;22.38;;;3.00;99.90;;;;;;5130510;27;20038;-65
2022/01/10 11:15:39;;;;;;;40.63;22.13;;;3.00;99.90;;;;;;5130874;27;20100;-65
2022/01/10 11:18:07;;;;;;;37.60;23.23;;;3.10;99.90;;;;;;5129456;27;20069;-64
2022/01/10 11:20:47;;;;;;;37.40;22.35;;;3.10;99.90;;;;;;5129246;27;20072;-65
2022/01/10 11:23:13;;;;;;;34.22;22.60;;;3.10;99.90;;;;;;5129352;27;20050;-64
2022/01/10 11:25:40;;;;;;;39.22;21.42;;;3.30;99.90;;;;;;5129739;27;20398;-64
2022/01/10 11:28:11;;;;;;;34.28;22.55;;;3.20;99.90;;;;;;5129335;27;20043;-64
2022/01/10 11:30:44;;;;;;;37.92;22.02;;;3.20;99.90;;;;;;5130066;27;20031;-64
2022/01/10 11:33:16;;;;;;;36.60;21.77;;;3.30;99.90;;;;;;5129310;27;20487;-64
2022/01/10 11:35:46;;;;;;;32.70;21.40;;;3.30;99.90;;;;;;5130026;27;20031;-64
2022/01/10 11:38:20;;;;;;;35.50;22.08;;;3.30;99.90;;;;;;5129016;27;20043;-65
2022/01/10 11:40:53;;;;;;;35.85;21.92;;;3.60;99.90;;;;;;5129387;27;20043;-64
2022/01/10 11:43:41;;;;;;;34.67;22.60;;;3.40;99.90;;;;;;5130608;27;20122;-64
2022/01/10 11:46:13;;;;;;;38.42;21.60;;;3.50;99.90;;;;;;5129115;27;20143;-65
2022/01/10 11:48:50;;;;;;;40.55;23.42;;;3.50;99.90;;;;;;5129120;27;20050;-64
2022/01/10 11:51:27;;;;;;;32.08;20.95;;;3.50;99.90;;;;;;5127298;27;20051;-64
2022/01/10 11:53:59;;;;;;;31.92;22.42;;;3.50;99.90;;;;;;5130239;27;20023;-64
2022/01/10 11:56:32;;;;;;;41.33;23.25;;;3.50;99.90;;;;;;5128935;27;20050;-64
2022/01/10 11:59:17;;;;;;;32.90;21.90;;;3.60;99.90;;;;;;5128620;27;20348;-64
2022/01/10 12:01:49;;;;;;;38.10;21.65;;;3.60;99.90;;;;;;5129515;27;20039;-65
2022/01/10 12:04:16;;;;;;;33.88;21.42;;;3.60;99.90;;;;;;5128714;27;20088;-64
2022/01/10 12:06:42;;;;;;;37.17;22.15;;;3.80;99.90;;;;;;5127580;27;20479;-65
2022/01/10 12:09:08;;;;;;;34.40;23.00;;;3.70;99.90;;;;;;5130390;27;20043;-64
2022/01/10 12:11:37;;;;;;;35.83;23.77;;;3.80;99.90;;;;;;5128311;27;20042;-65
2022/01/10 12:14:03;;;;;;;41.88;22.45;;;3.80;99.90;;;;;;5128238;27;20043;-65
2022/01/10 12:16:29;;;;;;;36.22;22.50;;;3.80;99.90;;;;;;5128314;27;20042;-65
2022/01/10 12:18:55;;;;;;;35.72;22.98;;;3.80;99.90;;;;;;5127919;27;20042;-64
2022/01/10 12:21:21;;;;;;;37.25;23.00;;;3.90;99.90;;;;;;5129839;27;20424;-64
2022/01/10 12:23:48;;;;;;;35.88;21.20;;;3.90;99.90;;;;;;5127228;27;20604;-64
2022/01/10 12:26:14;;;;;;;34.22;22.58;;;3.90;99.90;;;;;;5127590;27;20080;-64
2022/01/10 12:28:40;;;;;;;43.90;23.85;;;4.00;99.90;;;;;;5128851;27;20074;-64
2022/01/10 12:31:05;;;;;;;39.33;23.83;;;4.00;99.90;;;;;;5128767;27;20054;-64
2022/01/10 12:33:32;;;;;;;39.40;23.08;;;4.00;99.90;;;;;;5128661;27;20038;-65
2022/01/10 12:36:02;;;;;;;36.65;23.00;;;4.00;99.90;;;;;;5128171;27;20051;-65
2022/01/10 12:38:28;;;;;;;34.28;22.95;;;4.10;99.90;;;;;;5129825;27;20039;-64